Port Lions, AK (99550)

1:45 PM AKDT on August 27, 2016 (GMT -0800)
Albatross Avenue | | Change Station

Elev 36 ft 57.74 °N, 152.50 °W | Updated 4 minutes ago

Clear
Clear
69.8 °F
Feels Like 69.8 °F
N
6.2
Wind Variable Wind from East
Gusts 15.5 mph

Today
High -- | Low -- °F
--% Chance of Precip.
Yesterday
High -- | Low -- °F
Precip. -- in
Pressure 30.06 in
Visibility 10.0 miles
Clouds Clear
Dew Point 50 °F
Humidity 49%
Rainfall 0.00 in
Snow Depth Not available.
7:03 AM 9:22 PM
Waning Crescent, 21% visible
METAR PADQ 272053Z 31018G21KT 10SM CLR 22/09 A3006 RMK AO2 PK WND 31026/2026 SLP180 T02220089 58008
Pressure 30.06 in
Visibility 10.0 miles
Clouds Clear
Dew Point 50 °F
Humidity 49%
Rainfall 0.00 in
Snow Depth Not available.
7:03 AM 9:22 PM
Waning Crescent, 21% visible
METAR PADQ 272053Z 31018G21KT 10SM CLR 22/09 A3006 RMK AO2 PK WND 31026/2026 SLP180 T02220089 58008

10-Day Weather Forecast

Almanac

Astronomy

Aug. 27, 2016 Rise Set
Actual Time
Civil Twilight
Nautical Twilight
Astronomical Twilight
Moon
Length of Visible Light
Length of Day
Tomorrow will be .
, % of the Moon is Illuminated

Today's Extremes

State Highs State Lows

Community

WunderPhotos

Upload Photos

1,935,455 photos uploaded!

WunderBlog® & News

Nearby

Air Quality

  Air Quality AQ Index Pollutant
Not available.

Snow Depth

Station Depth Elevation

Earthquake Activity

City Distance Mag. Time & Date
Minimum magnitude displayed is 2.5.

Coastal Water Temperatures

Place Temperature

Stations

Nearby Weather Stations

Station Location Temp. Windchill Dew Point Humidity Wind Precip. Elev Updated Type
                   

Watches & Warnings

There are currently no watches in effect.